aviador You're here:

KBNO Decoded Metar

BURNS in OR, USA
Report Time2017-04-25 07:53:00
UTC Time2017-04-25 08:30:37
Flight Rules vfr VFR
Wind240° at 07 kt
W.Decomp.*RWY 21: 6.8 kt HW 1.5 kt RCW
RWY 30: 1.5 kt HW 6.8 kt LCW
W.Rank240° ranks 6
Current wind is below 240° avg. (7.8)
Visibility9999 m
Phenomena:N/A
Clouds:N/A
Expected CloudBase > 800 ft AGL from Temp-Dew spread
CeilingNone
Temp00°C (ISA -7)
Dew Point-2°C (87% RH)
AAT-4.8°C
QNH1013 hPa
Density Alt3,415 ft
Elevation4,147 ft
Report Wrong Elevation
Raw Report
METAR KBNO 250753Z AUTO 24007KT 10SM CLR 00/M02 A2991 RMK AO2 SLP136
T00001017 400830000=

Extra information for KBNO:More info

Metar Taf Metar & Taf Last 4 Metars F.Rules Stats Wind Profile Meteogram Temp Stats Airport Information Weather charts Add Link Nearby VenuesMetar ALERT Operation Metar Decoded Social comments

AIRNAV info for KBNO